createdAt,value
2024-01-16T11:37:52.361Z,98257.92
2024-01-16T11:40:23.403Z,98253.75
2024-01-16T11:50:35.771Z,98275.53
2024-01-16T11:53:04.144Z,98273.54
2024-01-16T11:56:01.407Z,98283.17
2024-01-16T11:58:39.173Z,98287.67
2024-01-16T12:01:07.479Z,98298.67
2024-01-16T12:03:35.943Z,98309.16
2024-01-16T12:06:10.862Z,98304.46
2024-01-16T12:08:39.008Z,98309.88
2024-01-16T12:11:07.004Z,98308.08
2024-01-16T12:13:34.774Z,98317.67
2024-01-16T12:16:06.308Z,98318.73
2024-01-16T12:18:41.385Z,98317.98
2024-01-16T12:21:13.183Z,98321.22
2024-01-16T12:23:47.067Z,98321.73
2024-01-16T12:34:09.584Z,98340.41
2024-01-16T12:36:38.967Z,98345.42
2024-01-16T12:39:07.045Z,98346.97
2024-01-16T12:41:42.317Z,98352.89
2024-01-16T12:44:16.215Z,98355.80
2024-01-16T12:46:54.966Z,98356.96
2024-01-16T12:49:24.490Z,98357.44
2024-01-16T12:52:22.480Z,98361.16
2024-01-16T12:55:10.241Z,98372.35
2024-01-16T12:57:38.575Z,98374.60
2024-01-16T13:00:26.946Z,98384.21
2024-01-16T13:02:57.125Z,98392.48
2024-01-16T13:05:26.950Z,98392.60
2024-01-16T13:08:04.702Z,98393.38
2024-01-16T13:13:21.100Z,98404.84
2024-01-16T13:15:49.068Z,98401.94
2024-01-16T13:18:24.263Z,98403.38
2024-01-16T13:20:56.182Z,98412.20
2024-01-16T13:23:26.385Z,98416.52
2024-01-16T13:25:57.050Z,98419.89
2024-01-16T13:28:26.693Z,98424.97
2024-01-16T13:30:54.658Z,98434.20
2024-01-16T13:33:24.617Z,98440.16
2024-01-16T13:35:53.506Z,98438.97
2024-01-16T13:38:21.434Z,98450.53
2024-01-16T13:40:51.529Z,98448.16
2024-01-16T13:43:19.948Z,98457.05
2024-01-16T13:45:51.005Z,98458.23
2024-01-16T13:48:19.401Z,98463.86
2024-01-16T13:50:49.044Z,98465.21
2024-01-16T13:53:17.337Z,98467.71
2024-01-16T13:55:45.957Z,98480.58
2024-01-16T13:58:14.067Z,98473.39
2024-01-16T14:00:42.047Z,98485.21
2024-01-16T14:03:10.159Z,98483.02
2024-01-16T14:05:38.297Z,98492.56
2024-01-16T14:08:07.017Z,98497.75
2024-01-16T14:10:34.739Z,98506.45
2024-01-16T14:13:02.462Z,98508.94
2024-01-16T14:15:30.504Z,98511.25
2024-01-16T14:17:59.687Z,98523.39
2024-01-16T14:20:28.896Z,98525.89
2024-01-16T14:22:57.679Z,98533.21
2024-01-16T14:25:26.265Z,98537.84
2024-01-16T14:28:01.813Z,98540.69
2024-01-16T14:30:31.020Z,98544.30
2024-01-16T14:32:59.080Z,98548.36
2024-01-16T14:35:27.050Z,98549.50
2024-01-16T14:37:55.238Z,98561.51
2024-01-16T14:40:26.882Z,98571.01
2024-01-16T14:42:55.793Z,98578.58
2024-01-16T14:45:24.850Z,98584.95
2024-01-16T14:47:54.945Z,98591.30
2024-01-16T14:50:23.634Z,98581.89
2024-01-16T14:52:53.070Z,98588.41
2024-01-16T14:55:24.172Z,98597.20
2024-01-16T14:57:54.596Z,98598.83
2024-01-16T15:00:25.592Z,98603.45
2024-01-16T15:02:54.734Z,98616.13
2024-01-16T15:05:23.446Z,98622.45
2024-01-16T15:07:53.426Z,98629.27
2024-01-16T15:10:22.052Z,98630.31
2024-01-16T15:12:50.180Z,98627.86
2024-01-16T15:15:18.117Z,98638.17
2024-01-16T15:18:05.920Z,98642.00
2024-01-16T15:20:33.693Z,98646.73
2024-01-16T15:23:01.545Z,98647.79
2024-01-16T15:25:29.476Z,98655.84
2024-01-16T15:27:57.954Z,98660.91
2024-01-16T15:30:32.852Z,98661.08
2024-01-16T15:33:00.930Z,98660.37
2024-01-16T15:35:28.827Z,98670.70
2024-01-16T15:37:56.689Z,98664.94
2024-01-16T15:40:24.775Z,98664.41
2024-01-16T15:42:52.730Z,98664.59
2024-01-16T15:45:21.319Z,98667.56
2024-01-16T15:47:50.179Z,98683.31
2024-01-16T15:50:19.010Z,98686.65
2024-01-16T15:52:47.717Z,98690.85
2024-01-16T15:55:16.086Z,98695.05
2024-01-16T15:57:45.450Z,98706.27
2024-01-16T16:07:55.272Z,98724.23
2024-01-16T16:10:23.551Z,98732.83
2024-01-16T16:12:51.740Z,98736.55
2024-01-16T16:15:19.801Z,98740.59
2024-01-16T16:17:48.089Z,98744.98
2024-01-16T16:20:16.105Z,98752.33
2024-01-16T16:22:46.650Z,98747.79
2024-01-16T16:25:16.012Z,98759.35
2024-01-16T16:27:45.503Z,98766.39
2024-01-16T16:30:13.889Z,98769.71
2024-01-16T16:32:41.787Z,98774.63
2024-01-16T16:35:11.087Z,98777.09
2024-01-16T16:37:39.019Z,98792.13
2024-01-16T16:40:07.781Z,98797.02
2024-01-16T16:42:35.584Z,98812.41
2024-01-16T16:45:04.654Z,98823.61
2024-01-16T16:47:32.587Z,98832.52
2024-01-16T16:50:00.866Z,98836.38
2024-01-16T16:52:28.745Z,98836.72
2024-01-16T16:54:56.950Z,98840.56
2024-01-16T16:57:24.764Z,98836.55
2024-01-16T16:59:54.193Z,98843.72
2024-01-16T17:02:23.601Z,98851.77
2024-01-16T17:04:51.769Z,98852.11
2024-01-16T17:07:19.733Z,98854.04
2024-01-16T17:09:47.853Z,98852.46
2024-01-16T17:12:15.720Z,98854.02
2024-01-16T17:14:43.629Z,98859.98
2024-01-16T17:17:12.572Z,98863.84
2024-01-16T17:19:41.976Z,98871.52
2024-01-16T17:22:10.261Z,98884.80
2024-01-16T17:24:38.336Z,98879.90
2024-01-16T17:27:07.067Z,98889.02
2024-01-16T17:29:35.122Z,98893.20
2024-01-16T17:32:04.642Z,98896.52
2024-01-16T17:34:32.519Z,98900.36
2024-01-16T17:37:00.542Z,98908.05
2024-01-16T17:39:29.175Z,98910.50
2024-01-16T17:41:57.137Z,98910.49
2024-01-16T17:44:25.042Z,98919.06
2024-01-16T17:46:53.042Z,98920.98
2024-01-16T17:49:21.253Z,98922.55
2024-01-16T17:51:49.838Z,98927.45
2024-01-16T17:54:17.797Z,98929.73
2024-01-16T17:56:48.619Z,98932.17
2024-01-16T17:59:17.408Z,98938.65
2024-01-16T18:01:45.245Z,98940.75
2024-01-16T18:04:14.560Z,98945.83
2024-01-16T18:06:44.394Z,98948.80
2024-01-16T18:09:12.609Z,98948.10
2024-01-16T18:11:56.937Z,98954.38
2024-01-16T18:14:25.612Z,98963.15
2024-01-16T18:16:54.875Z,98967.50
2024-01-16T18:19:26.068Z,98970.48
2024-01-16T18:21:56.784Z,98977.64
2024-01-16T18:24:24.782Z,98989.36
2024-01-16T18:26:52.736Z,98991.13
2024-01-16T18:29:23.371Z,98990.09
2024-01-16T18:31:51.519Z,98992.19
2024-01-16T18:34:22.200Z,99000.41
2024-01-16T18:36:50.628Z,99004.61
2024-01-16T18:39:21.167Z,99008.99
2024-01-16T18:41:52.990Z,99010.39
2024-01-16T18:44:21.730Z,99017.39
2024-01-16T18:46:49.643Z,99026.48
2024-01-16T18:49:18.052Z,99034.00
2024-01-16T18:51:48.489Z,99037.32
2024-01-16T18:54:17.239Z,99037.66
2024-01-16T18:56:45.194Z,99046.92
2024-01-16T18:59:13.107Z,99044.47
2024-01-16T19:01:42.687Z,99049.54
2024-01-16T19:04:14.135Z,99051.64
2024-01-16T19:06:49.010Z,99057.58
2024-01-16T19:09:19.073Z,99053.73
2024-01-16T19:11:50.553Z,99055.81
2024-01-16T19:14:18.508Z,99058.96
2024-01-16T19:16:47.608Z,99067.89
2024-01-16T19:19:15.742Z,99074.52
2024-01-16T19:21:47.171Z,99080.83
2024-01-16T19:24:16.965Z,99082.57
2024-01-16T19:26:45.207Z,99090.27
2024-01-16T19:29:13.974Z,99092.74
2024-01-16T19:31:45.558Z,99093.95
2024-01-16T19:34:13.829Z,99101.63
2024-01-16T19:36:42.178Z,99103.02
2024-01-16T19:39:16.124Z,99107.92
2024-01-16T19:41:45.253Z,99117.73
2024-01-16T19:44:13.330Z,99124.56
2024-01-16T19:46:44.393Z,99134.14
2024-01-16T19:49:12.352Z,99137.47
2024-01-16T19:51:40.711Z,99147.27
2024-01-16T19:54:09.337Z,99152.85
2024-01-16T19:56:43.381Z,99161.22
2024-01-16T19:59:11.895Z,99171.52
2024-01-16T20:06:23.045Z,99191.55
2024-01-16T20:08:53.185Z,99196.58
2024-01-16T20:11:31.125Z,99203.02
2024-01-16T20:13:59.745Z,99201.95
2024-01-16T20:16:29.351Z,99205.23
2024-01-16T20:18:57.743Z,99208.30
2024-01-16T20:21:27.069Z,99208.85
2024-01-16T20:23:55.392Z,99212.36
2024-01-16T20:26:23.409Z,99217.42
2024-01-16T20:28:51.252Z,99223.72
2024-01-16T20:31:19.124Z,99231.61
2024-01-16T20:33:52.919Z,99238.44
2024-01-16T20:36:21.198Z,99239.48
2024-01-16T20:38:50.252Z,99245.04
2024-01-16T20:41:18.205Z,99252.55
2024-01-16T20:43:46.202Z,99258.64
2024-01-16T20:46:15.698Z,99263.84
2024-01-16T20:48:43.750Z,99278.13
2024-01-16T20:51:14.912Z,99285.23
2024-01-16T20:53:42.820Z,99288.70
2024-01-16T20:56:10.852Z,99292.15
2024-01-16T20:58:39.781Z,99295.63
2024-01-16T21:01:08.755Z,99295.25
2024-01-16T21:03:36.876Z,99297.52
2024-01-16T21:06:07.441Z,99304.85
2024-01-16T21:08:37.259Z,99310.10
2024-01-16T21:11:05.054Z,99311.14
2024-01-16T21:13:32.775Z,99314.95
2024-01-16T21:16:02.938Z,99322.64
2024-01-16T21:18:33.108Z,99330.85
2024-01-16T21:21:01.165Z,99338.89
2024-01-16T21:23:30.070Z,99341.73
2024-01-16T21:25:57.655Z,99337.89
2024-01-16T21:28:25.261Z,99344.91
2024-01-16T21:30:53.164Z,99346.84
2024-01-16T21:33:20.696Z,99349.83
2024-01-16T21:35:48.346Z,99353.69
2024-01-16T21:38:15.988Z,99357.89
2024-01-16T21:40:43.698Z,99357.17
2024-01-16T21:43:11.201Z,99357.35
2024-01-16T21:45:38.663Z,99362.59
2024-01-16T21:48:06.445Z,99366.25
2024-01-16T21:50:38.213Z,99365.88
2024-01-16T21:53:06.261Z,99365.33
2024-01-16T21:55:33.684Z,99369.48
2024-01-16T21:58:01.184Z,99369.45
2024-01-16T22:00:28.732Z,99371.67
2024-01-16T22:03:00.394Z,99375.97
2024-01-16T22:05:28.316Z,99375.92
2024-01-16T22:07:55.933Z,99375.55
2024-01-16T22:10:24.393Z,99376.92
2024-01-16T22:12:51.912Z,99383.11
2024-01-16T22:15:19.448Z,99386.69
2024-01-16T22:17:48.199Z,99388.23
2024-01-16T22:20:17.253Z,99393.27
2024-01-16T22:22:45.176Z,99395.66
2024-01-16T22:25:12.853Z,99402.42
2024-01-16T22:27:41.253Z,99401.84
2024-01-16T22:30:10.667Z,99413.64
2024-01-16T22:32:39.463Z,99413.95
2024-01-16T22:35:07.295Z,99418.98
2024-01-16T22:37:34.980Z,99420.70
2024-01-16T22:40:02.684Z,99421.16
2024-01-16T22:42:31.196Z,99419.35
2024-01-16T22:44:58.597Z,99420.67
2024-01-16T22:47:26.256Z,99421.70
2024-01-16T22:49:53.785Z,99429.73
2024-01-16T22:52:22.138Z,99433.19
2024-01-16T22:54:49.575Z,99434.38
2024-01-16T22:57:17.925Z,99436.42
2024-01-16T22:59:45.305Z,99439.75
2024-01-16T23:02:13.182Z,99441.50
2024-01-16T23:04:41.186Z,99445.16
2024-01-16T23:07:08.720Z,99450.26
2024-01-16T23:09:36.382Z,99457.63
2024-01-16T23:12:04.261Z,99457.98
2024-01-16T23:14:31.762Z,99455.67
2024-01-16T23:16:59.155Z,99457.29
2024-01-16T23:19:26.619Z,99452.20
2024-01-16T23:21:54.103Z,99452.66
2024-01-16T23:24:21.520Z,99456.04
2024-01-16T23:26:49.085Z,99459.60
2024-01-16T23:29:16.516Z,99466.33
2024-01-16T23:31:44.087Z,99467.14
2024-01-16T23:34:11.553Z,99470.39
2024-01-16T23:36:39.018Z,99470.86
2024-01-16T23:39:06.751Z,99473.58
2024-01-16T23:41:34.294Z,99477.17
2024-01-16T23:44:02.101Z,99478.35
2024-01-16T23:46:29.535Z,99481.60
2024-01-16T23:49:00.637Z,99479.42
2024-01-16T23:51:28.605Z,99490.02
2024-01-16T23:56:12.516Z,99509.17
